createdAt,value
2017-08-30T00:01:09.461Z,6.90
2017-08-30T00:03:36.906Z,7.40
2017-08-30T00:06:04.377Z,6.60
2017-08-30T00:08:31.821Z,6.67
2017-08-30T00:10:59.279Z,7.17
2017-08-30T00:13:26.753Z,7.53
2017-08-30T00:15:54.243Z,7.10
2017-08-30T00:18:21.694Z,5.93
2017-08-30T00:20:49.153Z,7.83
2017-08-30T00:23:16.622Z,6.20
2017-08-30T00:25:55.743Z,6.00
2017-08-30T00:28:23.217Z,6.30
2017-08-30T00:30:50.662Z,5.67
2017-08-30T00:33:18.137Z,6.40
2017-08-30T00:35:45.582Z,5.60
2017-08-30T00:38:13.038Z,6.70
2017-08-30T00:40:40.505Z,6.27
2017-08-30T00:43:07.948Z,6.60
2017-08-30T00:45:35.422Z,6.10
2017-08-30T00:48:02.865Z,5.50
2017-08-30T00:50:30.395Z,5.57
2017-08-30T00:52:57.862Z,6.23
2017-08-30T00:55:25.323Z,7.67
2017-08-30T00:57:52.794Z,6.00
2017-08-30T01:07:03.442Z,6.13
2017-08-30T01:09:30.935Z,6.20
2017-08-30T01:11:58.388Z,5.67
2017-08-30T01:14:25.828Z,5.77
2017-08-30T01:16:53.306Z,6.07
2017-08-30T01:19:20.760Z,6.70
2017-08-30T01:21:48.205Z,5.33
2017-08-30T01:24:15.678Z,6.10
2017-08-30T01:26:43.125Z,5.00
2017-08-30T01:29:10.576Z,4.80
2017-08-30T01:31:38.053Z,5.57
2017-08-30T01:34:05.520Z,4.37
2017-08-30T01:36:32.966Z,6.03
2017-08-30T01:39:00.433Z,6.07
2017-08-30T01:41:27.900Z,5.87
2017-08-30T01:43:55.377Z,6.43
2017-08-30T01:46:22.861Z,6.20
2017-08-30T01:48:50.309Z,5.30
2017-08-30T01:51:17.790Z,6.17
2017-08-30T01:53:45.227Z,5.10
2017-08-30T01:56:12.669Z,5.90
2017-08-30T01:58:40.404Z,5.47
2017-08-30T02:01:07.868Z,5.50
2017-08-30T02:03:35.324Z,5.87
2017-08-30T02:06:02.790Z,5.37
2017-08-30T02:08:30.530Z,6.07
2017-08-30T02:10:57.987Z,6.50
2017-08-30T02:13:25.436Z,5.60
2017-08-30T02:15:52.909Z,5.70
2017-08-30T02:18:20.357Z,5.60
2017-08-30T02:20:47.814Z,6.53
2017-08-30T02:23:15.273Z,6.10
2017-08-30T02:25:42.745Z,7.03
2017-08-30T02:28:10.196Z,6.30
2017-08-30T02:30:37.667Z,5.57
2017-08-30T02:33:05.137Z,6.63
2017-08-30T02:35:32.603Z,6.40
2017-08-30T02:38:00.054Z,6.40
2017-08-30T02:40:27.538Z,6.70
2017-08-30T02:42:54.993Z,6.77
2017-08-30T02:45:22.433Z,6.00
2017-08-30T02:47:49.908Z,6.80
2017-08-30T02:50:17.399Z,7.23
2017-08-30T02:52:44.850Z,7.00
2017-08-30T02:55:12.313Z,6.00
2017-08-30T02:57:39.782Z,6.23
2017-08-30T03:00:07.232Z,7.00
2017-08-30T03:02:34.706Z,6.50
2017-08-30T03:05:02.174Z,7.93
2017-08-30T03:07:29.637Z,6.20
2017-08-30T03:09:57.106Z,6.53
2017-08-30T03:12:24.545Z,5.47
2017-08-30T03:14:52.010Z,5.07
2017-08-30T03:17:19.453Z,5.77
2017-08-30T03:19:46.918Z,5.47
2017-08-30T03:22:14.369Z,4.33
2017-08-30T03:24:41.838Z,5.73
2017-08-30T03:27:09.313Z,5.43
2017-08-30T03:29:36.770Z,5.40
2017-08-30T03:32:04.241Z,5.20
2017-08-30T03:34:31.711Z,5.90
2017-08-30T03:36:59.182Z,5.80
2017-08-30T03:39:26.650Z,6.10
2017-08-30T03:41:54.147Z,5.13
2017-08-30T03:44:21.593Z,5.80
2017-08-30T03:46:49.057Z,5.33
2017-08-30T03:49:16.507Z,4.77
2017-08-30T03:51:43.963Z,5.50
2017-08-30T03:54:11.422Z,5.23
2017-08-30T03:56:38.910Z,6.50
2017-08-30T03:59:06.349Z,5.97
2017-08-30T04:01:33.815Z,6.47
2017-08-30T04:04:01.289Z,6.70
2017-08-30T04:06:28.732Z,6.27
2017-08-30T04:08:56.210Z,7.17
2017-08-30T04:11:23.678Z,6.87
2017-08-30T04:13:51.140Z,7.07
2017-08-30T04:16:18.605Z,7.13
2017-08-30T04:18:46.084Z,7.00
2017-08-30T04:21:13.537Z,6.90
2017-08-30T04:23:41.008Z,7.53
2017-08-30T04:26:08.457Z,5.87
2017-08-30T04:28:35.897Z,6.30
2017-08-30T04:31:03.368Z,6.40
2017-08-30T04:33:30.819Z,5.90
2017-08-30T04:35:58.284Z,6.13
2017-08-30T04:38:25.729Z,5.80
2017-08-30T04:40:53.177Z,6.70
2017-08-30T04:43:20.650Z,5.60
2017-08-30T04:45:48.096Z,6.93
2017-08-30T04:48:15.569Z,5.93
2017-08-30T04:50:43.029Z,6.70
2017-08-30T04:53:10.712Z,6.00
2017-08-30T04:55:38.153Z,6.60
2017-08-30T04:58:05.597Z,6.00
2017-08-30T05:00:33.069Z,7.30
2017-08-30T05:03:00.616Z,6.20
2017-08-30T05:05:28.063Z,5.83
2017-08-30T05:07:55.546Z,6.43
2017-08-30T05:10:22.994Z,5.50
2017-08-30T05:12:50.448Z,6.63
2017-08-30T05:15:17.913Z,6.20
2017-08-30T05:17:45.381Z,5.40
2017-08-30T05:20:12.820Z,6.27
2017-08-30T05:22:40.297Z,6.93
2017-08-30T05:25:07.740Z,6.70
2017-08-30T05:27:35.188Z,6.43
2017-08-30T05:30:02.656Z,6.73
2017-08-30T05:32:30.120Z,19.33
2017-08-30T05:34:57.585Z,20.87
2017-08-30T05:37:25.039Z,17.50
2017-08-30T05:39:52.529Z,10.50
2017-08-30T05:42:20.001Z,9.97
2017-08-30T05:44:47.449Z,11.20
2017-08-30T05:47:14.910Z,10.73
2017-08-30T05:49:42.391Z,10.57
2017-08-30T05:52:09.870Z,10.03
2017-08-30T05:54:37.347Z,11.77
2017-08-30T05:57:04.801Z,10.10
2017-08-30T05:59:32.561Z,10.13
2017-08-30T06:02:00.042Z,11.10
2017-08-30T06:04:27.501Z,11.03
2017-08-30T06:06:54.974Z,12.20
2017-08-30T06:09:22.425Z,11.13
2017-08-30T06:11:49.899Z,16.33
2017-08-30T06:14:17.373Z,10.60
2017-08-30T06:16:45.075Z,12.97
2017-08-30T06:19:12.545Z,11.63
2017-08-30T06:21:40.000Z,10.90
2017-08-30T06:24:07.474Z,11.73
2017-08-30T06:26:34.928Z,12.40
2017-08-30T06:29:02.407Z,13.57
2017-08-30T06:31:29.871Z,13.40
2017-08-30T06:33:57.336Z,14.70
2017-08-30T06:36:24.797Z,14.33
2017-08-30T06:38:52.430Z,13.13
2017-08-30T06:41:19.877Z,13.30
2017-08-30T06:43:47.350Z,12.40
2017-08-30T06:46:14.805Z,11.70
2017-08-30T06:48:42.556Z,9.97
2017-08-30T06:51:10.010Z,8.80
2017-08-30T06:53:37.529Z,7.33
2017-08-30T06:56:05.005Z,6.30
2017-08-30T06:58:32.454Z,6.53
2017-08-30T07:00:59.926Z,5.50
2017-08-30T07:03:27.644Z,5.53
2017-08-30T07:05:55.122Z,5.10
2017-08-30T07:08:22.569Z,6.80
2017-08-30T07:10:50.022Z,6.17
2017-08-30T07:13:17.506Z,5.50
2017-08-30T07:15:44.953Z,6.37
2017-08-30T07:18:12.433Z,5.50
2017-08-30T07:20:39.911Z,5.50
2017-08-30T07:23:07.359Z,4.73
2017-08-30T07:25:34.815Z,5.20
2017-08-30T07:34:45.574Z,4.60
2017-08-30T07:37:13.024Z,4.80
2017-08-30T07:39:40.498Z,6.10
2017-08-30T07:42:07.944Z,6.27
2017-08-30T07:44:35.392Z,4.87
2017-08-30T07:47:02.860Z,4.13
2017-08-30T07:49:30.322Z,5.37
2017-08-30T07:51:57.794Z,5.20
2017-08-30T07:54:25.233Z,4.00
2017-08-30T07:56:52.703Z,6.37
2017-08-30T07:59:20.174Z,5.47
2017-08-30T08:01:47.637Z,4.90
2017-08-30T08:04:15.115Z,4.17
2017-08-30T08:06:42.564Z,4.23
2017-08-30T08:09:10.017Z,4.17
2017-08-30T08:11:37.484Z,3.70
2017-08-30T08:14:04.938Z,4.33
2017-08-30T08:16:32.400Z,4.17
2017-08-30T08:18:59.851Z,4.13
2017-08-30T08:21:27.297Z,6.33
2017-08-30T08:23:54.757Z,5.27
2017-08-30T08:26:22.242Z,3.80
2017-08-30T08:28:49.690Z,5.90
2017-08-30T08:31:17.126Z,5.40
2017-08-30T08:33:44.588Z,4.50
2017-08-30T08:36:12.384Z,5.00
2017-08-30T08:38:39.825Z,4.20
2017-08-30T08:41:07.276Z,4.60
2017-08-30T08:43:34.736Z,4.20
2017-08-30T08:46:02.189Z,5.80
2017-08-30T08:48:29.633Z,3.80
2017-08-30T08:50:57.109Z,5.30
2017-08-30T08:53:24.561Z,4.20
2017-08-30T08:55:52.013Z,4.57
2017-08-30T08:58:19.489Z,4.93
2017-08-30T09:00:46.957Z,4.50
2017-08-30T09:03:14.420Z,4.57
2017-08-30T09:05:41.880Z,5.13
2017-08-30T09:08:09.359Z,5.77
2017-08-30T09:10:36.808Z,4.07
2017-08-30T09:13:04.283Z,5.40
2017-08-30T09:15:31.752Z,5.53
2017-08-30T09:17:59.201Z,5.50
2017-08-30T09:20:26.641Z,5.87
2017-08-30T09:22:54.118Z,4.80
2017-08-30T09:25:21.578Z,5.33
2017-08-30T09:27:49.050Z,5.10
2017-08-30T09:30:16.516Z,5.30
2017-08-30T09:32:43.986Z,5.53
2017-08-30T09:35:11.428Z,5.40
2017-08-30T09:37:38.895Z,5.40
2017-08-30T09:40:06.342Z,5.80
2017-08-30T09:42:33.805Z,4.93
2017-08-30T09:45:01.277Z,4.77
2017-08-30T09:47:28.746Z,4.90
2017-08-30T09:49:56.190Z,5.27
2017-08-30T09:52:23.636Z,5.30
2017-08-30T09:54:51.106Z,6.70
2017-08-30T09:57:18.545Z,5.83
2017-08-30T09:59:46.008Z,5.00
2017-08-30T10:02:13.470Z,6.03
2017-08-30T10:04:40.941Z,4.70
2017-08-30T10:07:08.385Z,4.80
2017-08-30T10:09:35.833Z,5.43
2017-08-30T10:12:03.296Z,5.50
2017-08-30T10:14:30.737Z,6.33
2017-08-30T10:16:58.236Z,5.70
2017-08-30T10:19:25.678Z,5.20
2017-08-30T10:21:53.148Z,5.40
2017-08-30T10:24:20.609Z,5.30
2017-08-30T10:26:48.066Z,5.50
2017-08-30T10:29:15.513Z,4.77
2017-08-30T10:31:42.985Z,5.40
2017-08-30T10:34:10.438Z,6.10
2017-08-30T10:36:37.889Z,5.27
2017-08-30T10:39:05.353Z,5.33
2017-08-30T10:41:32.801Z,5.40
2017-08-30T10:44:00.274Z,5.37
2017-08-30T10:46:28.670Z,5.40
2017-08-30T10:48:56.133Z,4.73
2017-08-30T10:51:23.589Z,5.53
2017-08-30T10:53:51.065Z,5.43
2017-08-30T10:56:18.597Z,5.40
2017-08-30T10:58:46.041Z,5.63
2017-08-30T11:01:13.506Z,5.53
2017-08-30T11:03:40.950Z,5.23
2017-08-30T11:06:08.409Z,4.43
2017-08-30T11:08:35.873Z,5.73
2017-08-30T11:11:03.323Z,5.47
2017-08-30T11:13:30.765Z,4.70
2017-08-30T11:15:58.237Z,4.67
2017-08-30T11:18:25.709Z,4.90
2017-08-30T11:20:53.421Z,4.97
2017-08-30T11:23:20.862Z,5.10
2017-08-30T11:25:48.309Z,6.73
2017-08-30T11:28:15.778Z,4.90
2017-08-30T11:30:43.250Z,5.77
2017-08-30T11:33:10.729Z,5.67
2017-08-30T11:35:38.173Z,5.10
2017-08-30T11:38:05.629Z,4.53
2017-08-30T11:40:33.100Z,4.93
2017-08-30T11:43:00.868Z,4.13
2017-08-30T11:45:28.316Z,4.07
2017-08-30T11:47:55.786Z,4.20
2017-08-30T11:50:23.257Z,4.90
2017-08-30T11:52:50.702Z,5.13
2017-08-30T11:55:18.170Z,4.20
2017-08-30T11:57:45.645Z,4.20
2017-08-30T12:00:13.114Z,4.77
2017-08-30T12:02:40.558Z,4.03
2017-08-30T12:05:08.060Z,5.13
2017-08-30T12:07:35.530Z,4.40
2017-08-30T12:10:02.981Z,4.47
2017-08-30T12:12:30.454Z,4.17
2017-08-30T12:14:57.907Z,3.97
2017-08-30T12:17:25.369Z,4.40
2017-08-30T12:19:52.819Z,4.13
2017-08-30T12:22:20.269Z,4.50
2017-08-30T12:24:47.742Z,3.33
2017-08-30T12:27:15.220Z,4.30
2017-08-30T12:29:42.887Z,4.23
2017-08-30T12:32:10.366Z,4.73
2017-08-30T12:34:37.866Z,4.30
2017-08-30T12:37:10.813Z,4.00
2017-08-30T12:39:39.097Z,4.93
2017-08-30T12:42:06.576Z,4.17
2017-08-30T12:44:34.173Z,3.80
2017-08-30T12:47:01.638Z,4.93
2017-08-30T12:49:29.083Z,4.10
2017-08-30T12:51:56.570Z,4.50
2017-08-30T12:54:24.272Z,3.77
2017-08-30T12:56:51.722Z,4.70
2017-08-30T12:59:19.168Z,4.30
2017-08-30T13:01:46.705Z,4.93
2017-08-30T13:04:14.152Z,4.03
2017-08-30T13:06:41.619Z,4.17
2017-08-30T13:09:09.092Z,4.60
2017-08-30T13:11:36.547Z,4.33
2017-08-30T13:14:04.041Z,3.73
2017-08-30T13:16:31.494Z,4.80
2017-08-30T13:18:58.967Z,4.90
2017-08-30T13:21:26.410Z,4.50
2017-08-30T13:23:54.151Z,4.20
2017-08-30T13:26:21.627Z,4.40
2017-08-30T13:28:49.101Z,4.10
2017-08-30T13:31:16.584Z,4.77
2017-08-30T13:33:44.053Z,4.97
2017-08-30T13:36:11.525Z,4.63
2017-08-30T13:38:38.972Z,4.37
2017-08-30T13:41:06.444Z,4.97
2017-08-30T13:43:33.916Z,4.80
2017-08-30T13:46:01.371Z,4.83
2017-08-30T13:48:28.842Z,6.10
2017-08-30T13:50:56.312Z,5.20
2017-08-30T13:53:23.756Z,5.07
2017-08-30T13:55:51.232Z,4.60
2017-08-30T13:58:18.694Z,4.80
2017-08-30T14:00:46.162Z,4.60
2017-08-30T14:03:13.611Z,5.03
2017-08-30T14:05:41.049Z,4.90
2017-08-30T14:08:08.677Z,4.18
2017-08-30T14:10:36.223Z,3.80
2017-08-30T14:19:46.856Z,3.47
2017-08-30T14:22:14.304Z,3.43
2017-08-30T14:24:41.901Z,4.17
2017-08-30T14:27:09.357Z,3.03
2017-08-30T14:29:36.818Z,4.37
2017-08-30T14:32:04.290Z,4.53
2017-08-30T14:34:31.741Z,4.13
2017-08-30T14:36:59.186Z,4.17
2017-08-30T14:39:26.658Z,4.00
2017-08-30T14:41:54.129Z,3.83
2017-08-30T14:44:21.593Z,4.30
2017-08-30T14:46:49.041Z,4.73
2017-08-30T14:49:16.490Z,4.30
2017-08-30T14:51:43.961Z,4.10
2017-08-30T14:54:11.406Z,3.67
2017-08-30T14:56:38.845Z,3.87
2017-08-30T14:59:06.313Z,7.33
2017-08-30T15:01:33.763Z,4.13
2017-08-30T15:04:01.201Z,3.57
2017-08-30T15:06:28.669Z,4.20
2017-08-30T15:08:56.119Z,4.10
2017-08-30T15:11:23.582Z,4.13
2017-08-30T15:13:51.033Z,4.47
2017-08-30T15:16:18.526Z,4.90
2017-08-30T15:18:45.992Z,4.93
2017-08-30T15:21:13.479Z,4.17
2017-08-30T15:23:40.930Z,3.83
2017-08-30T15:26:08.368Z,4.33
2017-08-30T15:28:35.845Z,4.43
2017-08-30T15:31:03.609Z,5.17
2017-08-30T15:33:31.066Z,4.33
2017-08-30T15:35:58.513Z,4.47
2017-08-30T15:38:25.981Z,3.87
2017-08-30T15:40:53.443Z,4.30
2017-08-30T15:43:20.918Z,4.23
2017-08-30T15:45:48.369Z,4.23
2017-08-30T15:48:16.148Z,4.97
2017-08-30T15:50:43.622Z,8.50
2017-08-30T15:53:11.065Z,5.30
2017-08-30T15:55:38.504Z,5.00
2017-08-30T15:58:05.977Z,4.10
2017-08-30T16:00:33.437Z,4.10
2017-08-30T16:03:00.910Z,4.07
2017-08-30T16:05:28.350Z,4.07
2017-08-30T16:07:55.801Z,4.40
2017-08-30T16:10:23.334Z,3.80
2017-08-30T16:12:50.791Z,5.20
2017-08-30T16:15:18.263Z,4.40
2017-08-30T16:17:45.703Z,4.47
2017-08-30T16:20:13.151Z,4.10
2017-08-30T16:22:40.627Z,4.50
2017-08-30T16:25:08.103Z,4.30
2017-08-30T16:27:35.582Z,4.30
2017-08-30T16:30:03.050Z,3.70
2017-08-30T16:32:30.502Z,4.10
2017-08-30T16:34:57.970Z,4.60
2017-08-30T16:37:25.417Z,4.37
2017-08-30T16:39:52.885Z,4.63
2017-08-30T16:42:20.326Z,4.90
2017-08-30T16:44:47.799Z,4.13
2017-08-30T16:47:15.240Z,4.30
2017-08-30T16:49:43.412Z,4.20
2017-08-30T16:52:10.863Z,4.50
2017-08-30T16:54:38.309Z,4.10
2017-08-30T16:57:06.577Z,4.50
2017-08-30T16:59:34.366Z,5.00
2017-08-30T17:02:01.871Z,3.83
2017-08-30T17:04:29.798Z,4.13
2017-08-30T17:06:57.984Z,4.60
2017-08-30T17:09:25.458Z,5.80
2017-08-30T17:11:52.902Z,4.30
2017-08-30T17:14:20.377Z,5.80
2017-08-30T17:16:47.825Z,5.77
2017-08-30T17:19:15.297Z,6.30
2017-08-30T17:21:42.745Z,5.23
2017-08-30T17:24:10.206Z,5.00
2017-08-30T17:26:38.345Z,5.17
2017-08-30T17:29:06.905Z,5.37
2017-08-30T17:31:34.369Z,5.83
2017-08-30T17:34:01.813Z,4.93
2017-08-30T17:36:29.273Z,6.20
2017-08-30T17:38:56.741Z,6.27
2017-08-30T17:41:24.215Z,6.17
2017-08-30T17:43:51.660Z,7.13
2017-08-30T17:46:19.829Z,6.67
2017-08-30T17:48:47.502Z,5.47
2017-08-30T17:51:15.193Z,6.33
2017-08-30T17:53:43.668Z,6.57
2017-08-30T17:56:11.113Z,6.50
2017-08-30T17:58:38.561Z,7.00
2017-08-30T18:01:06.030Z,8.20
2017-08-30T18:03:33.485Z,5.90
2017-08-30T18:06:00.959Z,7.97
2017-08-30T18:08:29.313Z,7.80
2017-08-30T18:10:56.792Z,5.73
2017-08-30T18:13:24.241Z,6.67
2017-08-30T18:15:51.697Z,7.40
2017-08-30T18:18:20.206Z,6.40
2017-08-30T18:20:47.837Z,6.63
2017-08-30T18:23:15.343Z,7.07
2017-08-30T18:25:43.801Z,8.07
2017-08-30T18:28:12.021Z,7.20
2017-08-30T18:30:39.595Z,6.73
2017-08-30T18:33:07.113Z,7.80
2017-08-30T18:35:34.736Z,8.17
2017-08-30T18:38:02.557Z,9.87
2017-08-30T18:40:30.011Z,7.80
2017-08-30T18:42:57.465Z,8.37
2017-08-30T18:45:24.960Z,17.97
2017-08-30T18:47:52.430Z,19.20
2017-08-30T18:50:19.951Z,9.50
2017-08-30T18:52:47.423Z,8.80
2017-08-30T18:55:14.926Z,9.57
2017-08-30T18:57:42.420Z,10.30
2017-08-30T19:00:09.894Z,8.73
2017-08-30T19:02:37.360Z,6.90
2017-08-30T19:05:04.961Z,7.03
2017-08-30T19:07:32.455Z,7.30
2017-08-30T19:10:00.150Z,6.77
2017-08-30T19:12:27.685Z,7.30
2017-08-30T19:14:55.153Z,7.00
2017-08-30T19:17:22.627Z,6.40
2017-08-30T19:19:50.108Z,6.90
2017-08-30T19:22:17.596Z,6.95
2017-08-30T19:24:45.504Z,7.33
2017-08-30T19:27:13.003Z,7.03
2017-08-30T19:29:40.504Z,6.63
2017-08-30T19:32:08.006Z,6.57
2017-08-30T19:34:35.467Z,8.07
2017-08-30T19:37:03.490Z,8.20
2017-08-30T19:39:30.990Z,9.10
2017-08-30T19:41:58.508Z,10.77
2017-08-30T19:44:25.970Z,8.47
2017-08-30T19:46:53.456Z,6.93
2017-08-30T19:49:20.920Z,8.73
2017-08-30T19:51:48.410Z,10.40
2017-08-30T19:54:15.864Z,8.50
2017-08-30T19:56:43.319Z,9.07
2017-08-30T19:59:10.826Z,7.20
2017-08-30T20:01:38.288Z,8.50
2017-08-30T20:04:05.787Z,7.40
2017-08-30T20:06:33.245Z,8.60
2017-08-30T20:09:00.694Z,8.40
2017-08-30T20:11:28.290Z,8.70
2017-08-30T20:13:55.753Z,9.63
2017-08-30T20:16:23.266Z,10.53
2017-08-30T20:18:50.726Z,12.20
2017-08-30T20:21:18.174Z,10.83
2017-08-30T20:23:45.650Z,9.20
2017-08-30T20:26:13.141Z,7.80
2017-08-30T20:28:40.846Z,8.57
2017-08-30T20:31:08.305Z,9.37
2017-08-30T20:33:35.790Z,9.73
2017-08-30T20:36:03.283Z,10.73
2017-08-30T20:38:30.786Z,10.47
2017-08-30T20:40:58.235Z,8.00
2017-08-30T20:43:25.701Z,8.70
2017-08-30T20:45:53.175Z,7.40
2017-08-30T20:48:20.626Z,8.90
2017-08-30T20:50:48.185Z,8.70
2017-08-30T20:53:15.668Z,7.83
2017-08-30T20:55:43.109Z,8.07
2017-08-30T20:58:10.601Z,10.70
2017-08-30T21:00:38.057Z,9.50
2017-08-30T21:03:05.552Z,9.90
2017-08-30T21:05:32.997Z,7.40
2017-08-30T21:08:00.465Z,8.17
2017-08-30T21:10:27.941Z,12.47
2017-08-30T21:12:55.402Z,12.93
2017-08-30T21:15:22.882Z,10.10
2017-08-30T21:17:50.368Z,10.90
2017-08-30T21:20:17.834Z,9.83
2017-08-30T21:22:45.305Z,8.70
2017-08-30T21:25:12.778Z,9.80
2017-08-30T21:27:40.225Z,7.90
2017-08-30T21:30:07.674Z,8.90
2017-08-30T21:32:35.273Z,7.80
2017-08-30T21:35:02.717Z,6.63
2017-08-30T21:37:30.159Z,6.43
2017-08-30T21:39:57.752Z,8.00
2017-08-30T21:42:25.205Z,7.80
2017-08-30T21:44:52.693Z,8.53
2017-08-30T21:47:20.144Z,7.97
2017-08-30T21:49:47.600Z,7.27
2017-08-30T21:52:15.081Z,7.07
2017-08-30T21:54:42.561Z,6.93
2017-08-30T21:57:10.036Z,7.33
2017-08-30T21:59:37.505Z,6.60
2017-08-30T22:02:04.969Z,6.23
2017-08-30T22:04:32.414Z,6.67
2017-08-30T22:06:59.887Z,6.60
2017-08-30T22:09:27.338Z,7.53
2017-08-30T22:11:54.807Z,7.30
2017-08-30T22:14:22.293Z,8.90
2017-08-30T22:16:49.746Z,8.93
2017-08-30T22:19:17.218Z,9.43
2017-08-30T22:21:44.674Z,9.77
2017-08-30T22:24:12.145Z,8.73
2017-08-30T22:26:39.585Z,8.00
2017-08-30T22:29:07.063Z,9.03
2017-08-30T22:31:34.501Z,8.03
2017-08-30T22:34:01.977Z,8.50
2017-08-30T22:36:29.430Z,8.70
2017-08-30T22:38:56.898Z,7.50
2017-08-30T22:41:24.338Z,8.10
2017-08-30T22:43:51.818Z,8.90
2017-08-30T22:46:19.256Z,7.90
2017-08-30T22:48:46.702Z,8.27
2017-08-30T22:51:14.193Z,8.20
2017-08-30T22:53:41.642Z,8.63
2017-08-30T22:56:09.117Z,8.83
2017-08-30T22:58:36.561Z,8.10
2017-08-30T23:01:04.038Z,8.30
2017-08-30T23:03:31.493Z,9.50
2017-08-30T23:05:59.368Z,9.20
2017-08-30T23:08:26.821Z,9.70
2017-08-30T23:10:54.282Z,8.50
2017-08-30T23:13:21.760Z,8.63
2017-08-30T23:15:49.225Z,8.07
2017-08-30T23:18:16.685Z,8.63
2017-08-30T23:20:44.168Z,8.10
2017-08-30T23:23:11.630Z,7.57
2017-08-30T23:25:39.105Z,6.60
2017-08-30T23:28:06.548Z,7.60
2017-08-30T23:30:34.009Z,8.10
2017-08-30T23:33:01.483Z,8.67
2017-08-30T23:35:28.929Z,9.17
2017-08-30T23:37:56.381Z,8.00
2017-08-30T23:40:23.850Z,9.80
2017-08-30T23:42:51.573Z,7.07
2017-08-30T23:45:19.021Z,8.80
2017-08-30T23:47:46.481Z,9.40
2017-08-30T23:50:13.957Z,8.40
2017-08-30T23:52:41.404Z,7.90
2017-08-30T23:55:08.887Z,9.53
2017-08-30T23:57:36.336Z,8.10
